createdAt,value
2019-04-03T00:02:04.043Z,50.20
2019-04-03T00:04:34.142Z,50.00
2019-04-03T00:07:03.866Z,49.60
2019-04-03T00:09:33.082Z,49.70
2019-04-03T00:12:01.595Z,50.00
2019-04-03T00:14:30.137Z,50.20
2019-04-03T00:16:58.667Z,51.10
2019-04-03T00:19:27.204Z,51.30
2019-04-03T00:21:55.735Z,52.50
2019-04-03T00:24:24.292Z,54.10
2019-04-03T00:26:52.993Z,55.40
2019-04-03T00:29:22.644Z,54.10
2019-04-03T00:31:53.099Z,54.70
2019-04-03T00:34:23.374Z,56.90
2019-04-03T00:36:53.260Z,57.80
2019-04-03T00:39:23.971Z,59.40
2019-04-03T00:41:52.941Z,60.60
2019-04-03T00:44:24.001Z,63.00
2019-04-03T00:46:55.166Z,64.50
2019-04-03T00:49:24.424Z,66.90
2019-04-03T00:51:53.115Z,66.90
2019-04-03T00:54:21.677Z,68.30
2019-04-03T00:56:50.195Z,74.50
2019-04-03T00:59:18.685Z,71.40
2019-04-03T01:01:47.356Z,78.20
2019-04-03T01:04:15.955Z,90.10
2019-04-03T01:06:44.512Z,87.00
2019-04-03T01:09:13.051Z,76.50
2019-04-03T01:11:41.595Z,77.00
2019-04-03T01:14:10.128Z,76.00
2019-04-03T01:16:38.683Z,78.70
2019-04-03T01:19:07.275Z,78.50
2019-04-03T01:21:37.186Z,82.40
2019-04-03T01:24:08.277Z,78.00
2019-04-03T01:26:36.448Z,76.40
2019-04-03T01:29:05.063Z,72.20
2019-04-03T01:31:33.596Z,69.20
2019-04-03T01:34:02.219Z,69.50
2019-04-03T01:36:30.747Z,69.00
2019-04-03T01:38:59.335Z,68.90
2019-04-03T01:41:27.815Z,67.80
2019-04-03T01:43:56.375Z,67.90
2019-04-03T01:46:27.242Z,68.80
2019-04-03T01:48:55.060Z,69.70
2019-04-03T01:51:23.605Z,73.70
2019-04-03T01:53:52.136Z,70.50
2019-04-03T01:56:20.657Z,73.20
2019-04-03T01:58:49.198Z,78.20
2019-04-03T02:01:17.754Z,76.50
2019-04-03T02:03:46.287Z,77.70
2019-04-03T02:06:14.820Z,76.00
2019-04-03T02:08:44.888Z,75.20
2019-04-03T02:11:13.616Z,75.20
2019-04-03T02:13:42.443Z,74.20
2019-04-03T02:16:10.974Z,73.50
2019-04-03T02:18:39.518Z,72.50
2019-04-03T02:21:08.000Z,75.60
2019-04-03T02:23:36.522Z,73.80
2019-04-03T02:26:05.148Z,73.50
2019-04-03T02:28:34.932Z,73.90
2019-04-03T02:31:03.832Z,75.40
2019-04-03T02:33:32.437Z,79.30
2019-04-03T02:36:01.061Z,77.40
2019-04-03T02:38:29.796Z,75.60
2019-04-03T02:40:58.466Z,75.90
2019-04-03T02:43:27.007Z,75.60
2019-04-03T02:45:56.786Z,75.60
2019-04-03T02:48:25.498Z,74.90
2019-04-03T02:50:54.201Z,77.10
2019-04-03T02:53:22.924Z,77.50
2019-04-03T02:55:51.467Z,83.50
2019-04-03T02:58:22.045Z,83.80
2019-04-03T03:00:50.344Z,88.50
2019-04-03T03:03:18.892Z,90.30
2019-04-03T03:05:47.534Z,90.60
2019-04-03T03:08:17.378Z,91.00
2019-04-03T03:10:48.982Z,90.30
2019-04-03T03:13:18.792Z,90.80
2019-04-03T03:15:48.674Z,92.30
2019-04-03T03:18:17.641Z,91.50
2019-04-03T03:20:46.425Z,92.60
2019-04-03T03:23:15.789Z,93.60
2019-04-03T03:25:45.953Z,93.10
2019-04-03T03:28:15.657Z,94.90
2019-04-03T03:30:54.732Z,95.20
2019-04-03T03:33:33.184Z,94.00
2019-04-03T03:35:48.911Z,93.80
2019-04-03T03:38:20.236Z,94.40
2019-04-03T03:40:49.452Z,95.40
2019-04-03T03:43:18.753Z,96.10
2019-04-03T03:45:51.437Z,98.00
2019-04-03T03:48:19.011Z,98.70
2019-04-03T03:50:48.096Z,98.30
2019-04-03T03:53:17.053Z,98.90
2019-04-03T03:55:46.132Z,97.70
2019-04-03T03:58:14.799Z,99.90
2019-04-03T04:00:44.394Z,99.90
2019-04-03T04:03:15.048Z,99.90
2019-04-03T04:05:43.903Z,99.20
2019-04-03T04:08:13.071Z,98.80
2019-04-03T04:10:43.773Z,98.20
2019-04-03T04:13:15.531Z,99.90
2019-04-03T04:15:45.491Z,99.90
2019-04-03T04:18:15.307Z,99.90
2019-04-03T04:20:44.824Z,99.90
2019-04-03T04:23:13.876Z,99.90
2019-04-03T04:25:44.119Z,99.90
2019-04-03T04:28:13.779Z,99.90
2019-04-03T04:30:44.788Z,99.90
2019-04-03T04:33:14.911Z,99.90
2019-04-03T04:35:44.280Z,99.90
2019-04-03T04:38:13.042Z,99.90
2019-04-03T04:40:41.609Z,99.90
2019-04-03T04:43:10.096Z,99.90
2019-04-03T04:45:42.196Z,99.90
2019-04-03T04:48:09.932Z,99.90
2019-04-03T04:50:38.468Z,99.90
2019-04-03T04:53:07.824Z,99.90
2019-04-03T04:55:36.416Z,99.90
2019-04-03T04:58:05.333Z,99.90
2019-04-03T05:00:34.087Z,99.90
2019-04-03T05:03:02.688Z,99.90
2019-04-03T05:05:31.584Z,99.90
2019-04-03T05:08:02.230Z,99.90
2019-04-03T05:10:30.355Z,99.90
2019-04-03T05:12:58.914Z,99.90
2019-04-03T05:15:27.440Z,99.90
2019-04-03T05:17:57.687Z,99.90
2019-04-03T05:20:26.307Z,99.90
2019-04-03T05:22:55.335Z,99.90
2019-04-03T05:25:24.303Z,99.90
2019-04-03T05:27:52.853Z,99.90
2019-04-03T05:30:29.342Z,99.90
2019-04-03T05:32:58.817Z,99.90
2019-04-03T05:35:27.611Z,99.90
2019-04-03T05:37:56.159Z,99.90
2019-04-03T05:40:26.145Z,99.90
2019-04-03T05:42:55.037Z,99.90
2019-04-03T05:45:23.699Z,99.90
2019-04-03T05:47:52.324Z,99.90
2019-04-03T05:50:20.854Z,99.90
2019-04-03T05:52:49.610Z,99.90
2019-04-03T05:55:18.212Z,99.90
2019-04-03T05:57:46.899Z,99.90
2019-04-03T06:00:15.767Z,99.90
2019-04-03T06:02:44.325Z,99.90
2019-04-03T06:05:13.245Z,99.90
2019-04-03T06:07:41.981Z,99.90
2019-04-03T06:10:10.655Z,99.90
2019-04-03T06:12:39.457Z,99.90
2019-04-03T06:15:09.805Z,99.90
2019-04-03T06:17:38.650Z,99.90
2019-04-03T06:20:10.385Z,99.90
2019-04-03T06:22:37.762Z,99.90
2019-04-03T06:25:06.972Z,99.90
2019-04-03T06:27:35.586Z,99.90
2019-04-03T06:30:06.303Z,99.90
2019-04-03T06:32:34.828Z,99.90
2019-04-03T06:35:03.608Z,99.90
2019-04-03T06:37:32.264Z,99.90
2019-04-03T06:40:02.858Z,99.90
2019-04-03T06:42:31.024Z,99.90
2019-04-03T06:44:59.547Z,99.90
2019-04-03T06:47:28.090Z,99.90
2019-04-03T06:49:56.551Z,99.90
2019-04-03T06:52:25.496Z,99.90
2019-04-03T06:54:54.003Z,99.90
2019-04-03T06:57:22.531Z,99.90
2019-04-03T06:59:51.244Z,99.90
2019-04-03T07:02:20.369Z,99.90
2019-04-03T07:04:48.907Z,99.90
2019-04-03T07:07:31.524Z,99.90
2019-04-03T07:09:50.321Z,99.90
2019-04-03T07:12:17.864Z,98.90
2019-04-03T07:14:46.587Z,96.10
2019-04-03T07:17:15.193Z,95.80
2019-04-03T07:19:43.720Z,95.80
2019-04-03T07:22:12.275Z,94.70
2019-04-03T07:24:40.808Z,94.90
2019-04-03T07:27:09.422Z,94.80
2019-04-03T07:29:38.015Z,94.00
2019-04-03T07:32:06.635Z,92.10
2019-04-03T07:34:35.218Z,90.60
2019-04-03T07:37:04.190Z,85.10
2019-04-03T07:39:32.737Z,81.70
2019-04-03T07:42:01.523Z,79.90
2019-04-03T07:44:30.713Z,78.80
2019-04-03T07:46:59.327Z,80.30
2019-04-03T07:49:27.899Z,76.90
2019-04-03T07:51:56.578Z,76.70
2019-04-03T07:54:26.780Z,75.30
2019-04-03T07:56:57.337Z,76.80
2019-04-03T07:59:26.091Z,77.60
2019-04-03T08:01:54.684Z,75.80
2019-04-03T08:04:24.733Z,73.20
2019-04-03T08:06:53.516Z,71.10
2019-04-03T08:09:22.030Z,70.00
2019-04-03T08:11:50.564Z,67.80
2019-04-03T08:14:19.799Z,66.20
2019-04-03T08:16:48.845Z,65.90
2019-04-03T08:19:17.900Z,64.80
2019-04-03T08:21:46.519Z,64.20
2019-04-03T08:24:15.370Z,63.90
2019-04-03T08:26:43.971Z,63.50
2019-04-03T08:29:12.598Z,64.10
2019-04-03T08:31:44.230Z,61.70
2019-04-03T08:34:16.594Z,61.00
2019-04-03T08:36:41.650Z,58.10
2019-04-03T08:39:10.496Z,59.10
2019-04-03T08:41:39.020Z,59.30
2019-04-03T08:44:08.652Z,53.90
2019-04-03T08:46:37.903Z,55.20
2019-04-03T08:49:06.518Z,55.30
2019-04-03T08:51:35.145Z,56.20
2019-04-03T08:54:04.200Z,56.20
2019-04-03T08:56:32.978Z,53.40
2019-04-03T08:59:01.595Z,57.40
2019-04-03T09:01:30.252Z,54.70
2019-04-03T09:03:59.822Z,55.00
2019-04-03T09:06:28.423Z,54.40
2019-04-03T09:08:58.183Z,50.50
2019-04-03T09:11:27.203Z,52.00
2019-04-03T09:13:56.330Z,51.70
2019-04-03T09:16:25.006Z,51.50
2019-04-03T09:18:53.577Z,50.00
2019-04-03T09:21:22.223Z,49.90
2019-04-03T09:23:50.765Z,49.90
2019-04-03T09:26:19.221Z,49.30
2019-04-03T09:28:47.760Z,49.00
2019-04-03T09:31:17.125Z,49.80
2019-04-03T09:33:46.485Z,47.90
2019-04-03T09:36:15.004Z,46.50
2019-04-03T09:38:43.786Z,47.50
2019-04-03T09:41:12.375Z,49.10
2019-04-03T09:43:41.000Z,49.00
2019-04-03T09:46:09.583Z,48.20
2019-04-03T09:48:38.131Z,46.20
2019-04-03T09:51:09.137Z,46.60
2019-04-03T09:53:36.923Z,45.00
2019-04-03T09:56:08.045Z,45.90
2019-04-03T09:58:36.247Z,44.10
2019-04-03T10:01:05.479Z,45.10
2019-04-03T10:03:34.031Z,46.90
2019-04-03T10:06:02.805Z,44.20
2019-04-03T10:08:31.734Z,43.20
2019-04-03T10:11:00.331Z,43.70
2019-04-03T10:13:29.114Z,39.80
2019-04-03T10:15:57.666Z,44.90
2019-04-03T10:18:26.139Z,41.80
2019-04-03T10:20:54.674Z,40.00
2019-04-03T10:23:23.409Z,40.80
2019-04-03T10:25:53.516Z,40.20
2019-04-03T10:28:22.350Z,41.40
2019-04-03T10:30:52.830Z,39.50
2019-04-03T10:33:21.173Z,40.60
2019-04-03T10:35:50.048Z,37.70
2019-04-03T10:38:19.021Z,38.70
2019-04-03T10:40:47.726Z,39.80
2019-04-03T10:43:16.527Z,36.50
2019-04-03T10:45:45.446Z,35.70
2019-04-03T10:48:13.995Z,37.80
2019-04-03T10:50:42.662Z,36.50
2019-04-03T10:53:11.274Z,38.10
2019-04-03T10:55:40.131Z,35.00
2019-04-03T10:58:09.188Z,36.30
2019-04-03T11:00:38.217Z,33.70
2019-04-03T11:03:07.335Z,35.40
2019-04-03T11:05:36.123Z,34.30
2019-04-03T11:08:04.860Z,36.80
2019-04-03T11:10:33.396Z,35.00
2019-04-03T11:13:03.581Z,33.60
2019-04-03T11:15:32.562Z,35.50
2019-04-03T11:18:01.165Z,34.80
2019-04-03T11:20:29.702Z,34.30
2019-04-03T11:23:05.954Z,32.60
2019-04-03T11:25:28.481Z,32.20
2019-04-03T11:27:57.256Z,32.90
2019-04-03T11:30:26.431Z,29.30
2019-04-03T11:32:54.996Z,31.30
2019-04-03T11:35:23.771Z,31.30
2019-04-03T11:37:52.407Z,31.40
2019-04-03T11:40:24.177Z,30.10
2019-04-03T11:42:52.262Z,31.20
2019-04-03T11:45:21.322Z,29.80
2019-04-03T11:47:50.155Z,30.20
2019-04-03T11:50:19.226Z,29.80
2019-04-03T11:52:47.957Z,31.60
2019-04-03T11:55:16.717Z,31.90
2019-04-03T11:57:47.535Z,31.80
2019-04-03T12:00:20.923Z,28.90
2019-04-03T12:02:49.647Z,28.10
2019-04-03T12:05:20.582Z,29.10
2019-04-03T12:07:48.980Z,28.70
2019-04-03T12:10:17.841Z,28.30
2019-04-03T12:12:46.415Z,28.20
2019-04-03T12:15:16.483Z,27.30
2019-04-03T12:17:45.488Z,27.00
2019-04-03T12:20:16.587Z,26.60
2019-04-03T12:22:45.471Z,26.30
2019-04-03T12:25:15.096Z,26.20
2019-04-03T12:27:46.018Z,26.00
2019-04-03T12:30:14.459Z,25.30
2019-04-03T12:32:47.934Z,26.20
2019-04-03T12:35:13.988Z,27.00
2019-04-03T12:37:42.870Z,25.50
2019-04-03T12:40:12.060Z,25.90
2019-04-03T12:42:40.610Z,27.40
2019-04-03T12:45:09.763Z,26.50
2019-04-03T12:47:38.312Z,26.40
2019-04-03T12:50:11.805Z,25.00
2019-04-03T12:52:39.734Z,24.00
2019-04-03T12:55:08.635Z,24.30
2019-04-03T12:57:39.188Z,25.20
2019-04-03T13:00:13.355Z,25.80
2019-04-03T13:02:42.488Z,25.70
2019-04-03T13:05:12.076Z,25.00
2019-04-03T13:07:40.764Z,25.60
2019-04-03T13:10:10.014Z,25.80
2019-04-03T13:12:38.663Z,25.40
2019-04-03T13:15:09.331Z,25.30
2019-04-03T13:17:38.234Z,25.20
2019-04-03T13:20:08.143Z,25.50
2019-04-03T13:22:36.926Z,25.80
2019-04-03T13:25:09.631Z,25.90
2019-04-03T13:27:38.218Z,25.10
2019-04-03T13:30:12.413Z,25.50
2019-04-03T13:32:41.103Z,25.80
2019-04-03T13:35:10.218Z,26.20
2019-04-03T13:37:38.866Z,26.10
2019-04-03T13:40:09.851Z,26.50
2019-04-03T13:42:38.672Z,26.20
2019-04-03T13:45:09.351Z,26.50
2019-04-03T13:47:41.604Z,26.20
2019-04-03T13:50:09.771Z,26.80
2019-04-03T13:52:42.533Z,26.50
2019-04-03T13:55:09.151Z,26.90
2019-04-03T13:57:37.774Z,26.90
2019-04-03T14:00:19.087Z,27.00
2019-04-03T14:02:37.897Z,26.80
2019-04-03T14:05:07.766Z,26.70
2019-04-03T14:07:38.165Z,27.20
2019-04-03T14:10:08.775Z,27.00
2019-04-03T14:12:41.139Z,26.50
2019-04-03T14:15:07.735Z,27.20
2019-04-03T14:17:37.159Z,26.30
2019-04-03T14:20:07.564Z,27.00
2019-04-03T14:22:36.268Z,27.40
2019-04-03T14:25:17.869Z,26.90
2019-04-03T14:27:37.778Z,27.20
2019-04-03T14:30:11.920Z,26.60
2019-04-03T14:32:41.524Z,27.00
2019-04-03T14:35:40.464Z,26.90
2019-04-03T14:37:41.419Z,27.10
2019-04-03T14:40:12.258Z,28.10
2019-04-03T14:42:40.421Z,27.80
2019-04-03T14:45:09.197Z,27.80
2019-04-03T14:47:37.738Z,27.90
2019-04-03T14:50:07.292Z,27.90
2019-04-03T14:52:36.243Z,27.70
2019-04-03T14:55:17.004Z,28.30
2019-04-03T14:57:37.189Z,28.40
2019-04-03T15:00:24.868Z,27.50
2019-04-03T15:02:42.496Z,27.80
2019-04-03T15:05:11.185Z,28.20
2019-04-03T15:07:40.395Z,28.30
2019-04-03T15:10:09.605Z,28.10
2019-04-03T15:12:39.814Z,28.20
2019-04-03T15:15:09.722Z,28.30
2019-04-03T15:17:38.964Z,28.20
2019-04-03T15:20:09.595Z,28.70
2019-04-03T15:22:38.279Z,28.00
2019-04-03T15:25:08.653Z,28.40
2019-04-03T15:27:37.355Z,28.30
2019-04-03T15:30:12.025Z,28.50
2019-04-03T15:32:40.726Z,28.40
2019-04-03T15:35:10.255Z,28.50
2019-04-03T15:37:41.474Z,28.70
2019-04-03T15:40:10.187Z,28.70
2019-04-03T15:42:40.721Z,28.10
2019-04-03T15:45:11.324Z,28.70
2019-04-03T15:47:45.152Z,28.90
2019-04-03T15:50:10.674Z,29.50
2019-04-03T15:52:39.321Z,29.40
2019-04-03T15:55:09.626Z,29.10
2019-04-03T15:57:39.950Z,28.80
2019-04-03T16:00:13.495Z,29.00
2019-04-03T16:02:45.119Z,29.20
2019-04-03T16:05:13.023Z,29.50
2019-04-03T16:07:42.678Z,29.50
2019-04-03T16:10:11.789Z,29.60
2019-04-03T16:12:42.902Z,29.40
2019-04-03T16:15:10.740Z,29.40
2019-04-03T16:17:39.827Z,29.60
2019-04-03T16:20:08.654Z,29.90
2019-04-03T16:22:37.199Z,29.70
2019-04-03T16:25:08.163Z,29.60
2019-04-03T16:27:37.803Z,29.30
2019-04-03T16:30:14.182Z,29.20
2019-04-03T16:32:41.325Z,29.60
2019-04-03T16:35:12.733Z,29.70
2019-04-03T16:37:40.722Z,29.80
2019-04-03T16:40:10.108Z,29.90
2019-04-03T16:42:38.754Z,30.20
2019-04-03T16:45:10.577Z,29.90
2019-04-03T16:47:39.441Z,30.00
2019-04-03T16:50:09.682Z,30.00
2019-04-03T16:52:38.762Z,30.00
2019-04-03T16:55:08.034Z,30.00
2019-04-03T16:57:37.050Z,30.00
2019-04-03T17:00:08.942Z,29.90
2019-04-03T17:02:37.894Z,30.20
2019-04-03T17:05:10.469Z,30.30
2019-04-03T17:07:38.460Z,30.30
2019-04-03T17:10:09.762Z,30.40
2019-04-03T17:12:38.102Z,30.80
2019-04-03T17:15:09.619Z,30.80
2019-04-03T17:17:39.006Z,30.90
2019-04-03T17:20:09.494Z,31.20
2019-04-03T17:22:40.894Z,31.30
2019-04-03T17:25:09.219Z,32.10
2019-04-03T17:27:37.832Z,32.60
2019-04-03T17:30:11.382Z,33.00
2019-04-03T17:32:40.050Z,33.30
2019-04-03T17:35:09.040Z,33.40
2019-04-03T17:37:37.648Z,34.40
2019-04-03T17:40:10.571Z,33.90
2019-04-03T17:42:40.037Z,34.20
2019-04-03T17:45:09.360Z,34.50
2019-04-03T17:47:37.960Z,34.60
2019-04-03T17:50:07.821Z,35.00
2019-04-03T17:52:37.085Z,35.00
2019-04-03T17:55:10.903Z,35.10
2019-04-03T17:57:39.524Z,35.30
2019-04-03T18:00:13.698Z,35.50
2019-04-03T18:02:42.375Z,36.00
2019-04-03T18:05:11.161Z,35.60
2019-04-03T18:07:39.753Z,35.70
2019-04-03T18:10:12.454Z,35.80
2019-04-03T18:12:39.326Z,36.10
2019-04-03T18:15:09.659Z,36.30
2019-04-03T18:17:38.272Z,36.70
2019-04-03T18:20:08.131Z,36.80
2019-04-03T18:22:36.912Z,37.20
2019-04-03T18:25:08.801Z,37.10
2019-04-03T18:27:37.441Z,37.10
2019-04-03T18:30:11.444Z,38.00
2019-04-03T18:32:38.485Z,38.90
2019-04-03T18:35:07.865Z,39.80
2019-04-03T18:37:36.529Z,40.20
2019-04-03T18:40:06.689Z,40.10
2019-04-03T18:42:35.217Z,40.00
2019-04-03T18:45:05.110Z,39.80
2019-04-03T18:47:41.004Z,39.80
2019-04-03T18:50:04.604Z,39.80
2019-04-03T18:52:33.104Z,39.60
2019-04-03T18:55:01.775Z,39.40
2019-04-03T18:57:30.452Z,39.50
2019-04-03T19:00:00.701Z,39.20
2019-04-03T19:02:29.247Z,39.20
2019-04-03T19:05:02.253Z,39.50
2019-04-03T19:07:47.385Z,40.90
2019-04-03T19:10:18.206Z,41.80
2019-04-03T19:12:46.431Z,43.40
2019-04-03T19:15:15.130Z,42.80
2019-04-03T19:17:43.647Z,43.60
2019-04-03T19:20:12.273Z,43.00
2019-04-03T19:22:40.864Z,43.90
2019-04-03T19:25:09.852Z,44.90
2019-04-03T19:27:38.446Z,45.90
2019-04-03T19:30:08.055Z,46.50
2019-04-03T19:32:36.692Z,48.00
2019-04-03T19:35:09.247Z,48.50
2019-04-03T19:37:37.352Z,51.10
2019-04-03T19:40:09.671Z,49.90
2019-04-03T19:42:38.710Z,51.10
2019-04-03T19:45:08.087Z,50.40
2019-04-03T19:47:36.742Z,49.50
2019-04-03T19:50:07.770Z,50.30
2019-04-03T19:52:37.315Z,51.50
2019-04-03T19:55:07.695Z,49.80
2019-04-03T19:57:36.299Z,50.70
2019-04-03T20:00:08.559Z,52.60
2019-04-03T20:02:38.255Z,53.60
2019-04-03T20:05:07.761Z,55.20
2019-04-03T20:07:36.414Z,56.80
2019-04-03T20:10:09.803Z,58.10
2019-04-03T20:12:38.694Z,60.00
2019-04-03T20:15:08.270Z,60.50
2019-04-03T20:17:36.885Z,61.50
2019-04-03T20:20:07.279Z,62.30
2019-04-03T20:22:37.415Z,63.10
2019-04-03T20:25:06.487Z,64.70
2019-04-03T20:27:35.089Z,66.00
2019-04-03T20:30:06.299Z,66.80
2019-04-03T20:32:34.817Z,68.30
2019-04-03T20:35:03.840Z,70.10
2019-04-03T20:37:32.372Z,73.40
2019-04-03T20:40:00.828Z,76.50
2019-04-03T20:42:29.374Z,77.00
2019-04-03T20:44:58.234Z,78.10
2019-04-03T20:47:27.016Z,79.20
2019-04-03T20:49:56.085Z,79.70
2019-04-03T20:52:24.715Z,80.70
2019-04-03T20:54:53.972Z,81.60
2019-04-03T20:57:22.643Z,81.20
2019-04-03T21:00:01.887Z,80.90
2019-04-03T21:02:21.492Z,82.20
2019-04-03T21:07:16.382Z,82.40
2019-04-03T21:09:44.933Z,85.80
2019-04-03T21:12:13.465Z,88.30
2019-04-03T21:14:42.063Z,87.90
2019-04-03T21:17:10.540Z,87.50
2019-04-03T21:19:39.067Z,89.00
2019-04-03T21:22:07.644Z,90.40
2019-04-03T21:24:36.155Z,91.80
2019-04-03T21:27:04.775Z,92.10
2019-04-03T21:29:33.296Z,93.40
2019-04-03T21:32:01.832Z,95.60
2019-04-03T21:34:32.454Z,96.80
2019-04-03T21:37:00.557Z,97.90
2019-04-03T21:39:29.099Z,99.10
2019-04-03T21:41:57.599Z,99.90
2019-04-03T21:44:26.099Z,99.90
2019-04-03T21:46:54.558Z,99.90
2019-04-03T21:49:23.079Z,99.90
2019-04-03T21:51:51.912Z,99.90
2019-04-03T21:54:20.967Z,99.90
2019-04-03T21:56:49.518Z,99.90
2019-04-03T21:59:18.044Z,99.90
2019-04-03T22:01:46.595Z,99.90
2019-04-03T22:04:15.124Z,99.90
2019-04-03T22:06:43.650Z,99.90
2019-04-03T22:09:12.527Z,99.90
2019-04-03T22:11:40.975Z,99.90
2019-04-03T22:14:11.164Z,99.90
2019-04-03T22:16:39.831Z,99.90
2019-04-03T22:19:08.391Z,99.90
2019-04-03T22:21:36.910Z,99.90
2019-04-03T22:24:06.883Z,99.90
2019-04-03T22:26:35.834Z,99.90
2019-04-03T22:29:04.701Z,99.90
2019-04-03T22:31:33.176Z,99.90
2019-04-03T22:34:01.710Z,99.90
2019-04-03T22:36:30.244Z,99.90
2019-04-03T22:38:58.776Z,99.90
2019-04-03T22:41:27.318Z,99.90
2019-04-03T22:43:55.855Z,99.90
2019-04-03T22:46:24.384Z,99.90
2019-04-03T22:48:52.940Z,99.90
2019-04-03T22:51:21.460Z,99.90
2019-04-03T22:53:50.004Z,99.90
2019-04-03T22:56:18.540Z,99.90
2019-04-03T22:58:48.468Z,99.90
2019-04-03T23:01:17.151Z,99.90
2019-04-03T23:03:45.759Z,99.90
2019-04-03T23:06:14.298Z,99.90
2019-04-03T23:08:42.991Z,99.90
2019-04-03T23:11:11.534Z,99.90
2019-04-03T23:13:40.138Z,99.90
2019-04-03T23:16:09.614Z,99.90
2019-04-03T23:18:39.371Z,99.90
2019-04-03T23:21:08.038Z,99.90
2019-04-03T23:23:36.587Z,99.90
2019-04-03T23:26:05.255Z,99.90
2019-04-03T23:28:34.036Z,99.90
2019-04-03T23:31:03.272Z,99.90
2019-04-03T23:33:31.935Z,99.90
2019-04-03T23:36:00.627Z,99.90
2019-04-03T23:38:29.159Z,99.90
2019-04-03T23:40:57.846Z,99.90
2019-04-03T23:43:26.455Z,99.90
2019-04-03T23:45:54.972Z,99.90
2019-04-03T23:48:23.522Z,99.90
2019-04-03T23:50:52.672Z,99.90
2019-04-03T23:53:21.724Z,99.90
2019-04-03T23:55:50.395Z,99.90
2019-04-03T23:58:19.017Z,99.90
